Time;durP1;ratioP1;P1;durP2;ratioP2;P2;SDS_P1;SDS_P2;PMS_P1;PMS_P2;Temp;Humidity;BMP_temperature;BMP_pressure;BME280_temperature;BME280_humidity;BME280_pressure;Samples;Min_cycle;Max_cycle;Signal;HPM_P1;HPM_P2
2023/12/30 00:01:01;;;;;;;;;;;6.40;77.10;;;;;;5139966;23;20348;-86
2023/12/30 00:03:21;;;;;;;;;;;6.40;77.10;;;;;;5186084;22;20496;-87
2023/12/30 00:05:42;;;;;;;;;;;6.40;77.20;;;;;;5185280;22;19986;-86
2023/12/30 00:08:03;;;;;;;;;;;6.40;77.20;;;;;;5185019;22;19908;-86
2023/12/30 00:10:24;;;;;;;;;;;6.30;77.20;;;;;;5170348;22;19907;-86
2023/12/30 00:12:45;;;;;;;;;;;6.30;77.20;;;;;;5195677;22;20050;-85
2023/12/30 00:15:08;;;;;;;;;;;6.40;77.30;;;;;;5168304;22;20028;-87
2023/12/30 00:17:29;;;;;;;;;;;6.40;77.10;;;;;;5165045;22;19914;-87
2023/12/30 00:19:50;;;;;;;;;;;6.30;77.10;;;;;;5187210;22;19967;-86
2023/12/30 00:22:11;;;;;;;;;;;6.40;77.10;;;;;;5167504;22;19903;-84
2023/12/30 00:24:33;;;;;;;;;;;6.20;77.00;;;;;;5167624;22;19908;-84
2023/12/30 00:26:56;;;;;;;;;;;6.30;77.10;;;;;;5185755;22;20054;-86
2023/12/30 00:29:17;;;;;;;;;;;6.20;76.90;;;;;;5188907;22;19913;-86
2023/12/30 00:31:44;;;;;;;;;;;6.30;77.10;;;;;;5167757;22;19911;-86
2023/12/30 00:33:45;;;;;;;;;;;6.10;76.90;;;;;;5141358;23;19908;-84
2023/12/30 00:35:48;;;;;;;;;;;6.20;77.20;;;;;;5137225;23;19914;-86
2023/12/30 00:37:52;;;;;;;;;;;6.20;77.20;;;;;;5187479;22;19907;-85
2023/12/30 00:40:02;;;;;;;;;;;6.10;77.20;;;;;;5137921;23;19914;-86
2023/12/30 00:42:03;;;;;;;;;;;6.00;77.20;;;;;;5161035;23;19919;-86
2023/12/30 00:44:07;;;;;;;;;;;6.10;77.30;;;;;;5165238;23;19908;-85
2023/12/30 00:46:13;;;;;;;;;;;6.10;77.40;;;;;;5135400;23;19904;-85
2023/12/30 00:48:30;;;;;;;;;;;6.20;77.40;;;;;;5187959;22;19911;-85
2023/12/30 00:50:31;;;;;;;;;;;6.10;77.30;;;;;;5163012;23;19935;-86
2023/12/30 00:52:32;;;;;;;;;;;6.20;77.40;;;;;;5163118;23;20399;-85
2023/12/30 00:54:48;;;;;;;;;;;6.20;77.40;;;;;;5165288;22;19918;-86
2023/12/30 00:56:51;;;;;;;;;;;6.10;77.40;;;;;;5161217;23;19908;-85
2023/12/30 00:59:20;;;;;;;;;;;6.00;77.30;;;;;;5188243;22;19907;-86
2023/12/30 01:02:00;;;;;;;;;;;5.90;77.30;;;;;;5169142;22;19927;-87
2023/12/30 01:04:08;;;;;;;;;;;6.10;77.40;;;;;;5162881;23;19919;-85
2023/12/30 01:06:31;;;;;;;;;;;6.00;77.30;;;;;;5190266;22;20024;-85
2023/12/30 01:08:58;;;;;;;;;;;6.10;77.50;;;;;;5166854;22;19919;-86
2023/12/30 01:11:22;;;;;;;;;;;6.00;77.40;;;;;;5187694;22;19926;-85
2023/12/30 01:13:42;;;;;;;;;;;5.90;77.40;;;;;;5190563;22;19939;-88
2023/12/30 01:16:03;;;;;;;;;;;6.00;77.50;;;;;;5169996;22;19910;-88
2023/12/30 01:18:27;;;;;;;;;;;6.00;78.30;;;;;;5192030;22;19907;-85
2023/12/30 01:20:48;;;;;;;;;;;5.90;77.50;;;;;;5192946;22;19909;-84
2023/12/30 01:23:22;;;;;;;;;;;5.90;77.70;;;;;;5190953;22;20177;-85
2023/12/30 01:25:52;;;;;;;;;;;5.90;77.80;;;;;;5189209;22;19908;-85
2023/12/30 01:28:15;;;;;;;;;;;5.80;77.70;;;;;;5188657;22;20536;-85
2023/12/30 01:30:40;;;;;;;;;;;5.80;77.80;;;;;;5166091;22;20219;-86
2023/12/30 01:33:15;;;;;;;;;;;5.90;77.90;;;;;;5190490;22;19907;-85
2023/12/30 01:35:38;;;;;;;;;;;5.80;77.90;;;;;;5165755;22;19907;-85
2023/12/30 01:38:02;;;;;;;;;;;5.90;78.00;;;;;;5165857;22;19903;-85
2023/12/30 01:40:32;;;;;;;;;;;5.90;78.00;;;;;;5186419;22;19907;-85
2023/12/30 01:42:55;;;;;;;;;;;5.90;78.10;;;;;;5165222;22;19907;-85
2023/12/30 01:45:02;;;;;;;;;;;5.90;78.20;;;;;;5131473;23;19931;-87
2023/12/30 01:47:06;;;;;;;;;;;5.90;78.10;;;;;;5188135;22;20651;-86
2023/12/30 01:49:07;;;;;;;;;;;5.90;78.10;;;;;;5165834;23;19986;-85
2023/12/30 01:51:07;;;;;;;;;;;6.00;78.20;;;;;;5165015;23;19912;-85
2023/12/30 01:53:22;;;;;;;;;;;5.90;78.30;;;;;;5163440;23;19907;-85
2023/12/30 01:55:23;;;;;;;;;;;5.80;78.10;;;;;;5140282;23;19908;-87
2023/12/30 01:57:37;;;;;;;;;;;5.90;78.40;;;;;;5163782;23;20328;-86
2023/12/30 01:59:47;;;;;;;;;;;5.90;78.40;;;;;;5166631;22;20048;-86
2023/12/30 02:02:13;;;;;;;;;;;5.90;78.60;;;;;;5139947;23;19931;-86
2023/12/30 02:04:19;;;;;;;;;;;5.80;78.60;;;;;;5189333;22;19915;-85
2023/12/30 02:06:53;;;;;;;;;;;5.90;78.70;;;;;;5168260;22;19930;-86
2023/12/30 02:08:54;;;;;;;;;;;5.80;78.60;;;;;;5165634;23;19946;-85
2023/12/30 02:10:58;;;;;;;;;;;5.90;78.70;;;;;;5164908;23;19974;-85
2023/12/30 02:15:35;;;;;;;;;;;5.90;78.80;;;;;;5163363;23;19907;-85
2023/12/30 02:17:55;;;;;;;;;;;5.90;78.70;;;;;;5141820;23;19908;-86
2023/12/30 02:20:03;;;;;;;;;;;5.80;78.60;;;;;;5166091;23;19912;-86
2023/12/30 02:22:29;;;;;;;;;;;5.90;78.50;;;;;;5191899;22;19914;-86
2023/12/30 02:24:59;;;;;;;;;;;5.80;78.50;;;;;;5189107;22;19907;-85
2023/12/30 02:27:28;;;;;;;;;;;5.90;78.40;;;;;;5167800;22;19907;-88
2023/12/30 02:29:49;;;;;;;;;;;5.80;78.30;;;;;;5191202;22;19913;-86
2023/12/30 02:32:12;;;;;;;;;;;5.70;78.10;;;;;;5169777;22;19908;-85
2023/12/30 02:34:33;;;;;;;;;;;5.80;78.80;;;;;;5189289;22;19914;-84
2023/12/30 02:37:02;;;;;;;;;;;5.80;77.90;;;;;;5166104;22;19914;-85
2023/12/30 02:39:23;;;;;;;;;;;5.70;77.60;;;;;;5185581;22;20592;-84
2023/12/30 02:41:43;;;;;;;;;;;5.60;77.70;;;;;;5192076;22;19903;-84
2023/12/30 02:44:07;;;;;;;;;;;5.70;77.70;;;;;;5191736;22;19915;-86
2023/12/30 02:46:31;;;;;;;;;;;5.50;77.60;;;;;;5186414;22;19896;-86
2023/12/30 02:49:02;;;;;;;;;;;5.50;77.50;;;;;;5207772;22;20619;-85
2023/12/30 02:51:23;;;;;;;;;;;5.40;77.40;;;;;;5185034;22;19947;-88
2023/12/30 02:53:23;;;;;;;;;;;5.50;77.50;;;;;;5179142;22;20186;-85
2023/12/30 02:55:27;;;;;;;;;;;5.50;77.70;;;;;;5203603;22;19896;-86
2023/12/30 02:57:30;;;;;;;;;;;5.40;77.70;;;;;;5177585;22;19912;-88
2023/12/30 02:59:40;;;;;;;;;;;5.30;77.60;;;;;;5154928;23;19947;-86
2023/12/30 03:02:03;;;;;;;;;;;5.20;77.60;;;;;;5204415;22;19895;-87
2023/12/30 03:04:04;;;;;;;;;;;5.30;77.40;;;;;;5179953;22;19903;-88
2023/12/30 03:06:37;;;;;;;;;;;5.30;77.60;;;;;;5182507;22;19935;-86
2023/12/30 03:09:04;;;;;;;;;;;5.30;77.60;;;;;;5198368;22;19911;-85
2023/12/30 03:11:23;;;;;;;;;;;5.30;77.80;;;;;;5170502;23;19922;-86
2023/12/30 03:13:44;;;;;;;;;;;5.20;77.90;;;;;;5195548;22;19933;-88
2023/12/30 03:16:13;;;;;;;;;;;5.30;78.00;;;;;;5173787;22;19965;-86
2023/12/30 03:18:19;;;;;;;;;;;5.20;78.00;;;;;;5168322;22;19912;-87
2023/12/30 03:20:39;;;;;;;;;;;5.30;78.40;;;;;;5194740;22;19907;-88
2023/12/30 03:23:15;;;;;;;;;;;5.20;78.60;;;;;;5174577;22;19903;-86
2023/12/30 03:25:37;;;;;;;;;;;5.20;78.70;;;;;;5193103;22;20021;-85
2023/12/30 03:27:57;;;;;;;;;;;5.20;78.40;;;;;;5193967;22;19911;-85
2023/12/30 03:30:18;;;;;;;;;;;5.20;78.70;;;;;;5192922;22;19918;-87
2023/12/30 03:32:38;;;;;;;;;;;5.20;78.80;;;;;;5171539;22;19914;-85
2023/12/30 03:35:03;;;;;;;;;;;5.10;78.50;;;;;;5192840;22;19907;-85
2023/12/30 03:37:23;;;;;;;;;;;5.10;78.80;;;;;;5194085;22;19933;-85
2023/12/30 03:39:44;;;;;;;;;;;5.20;78.90;;;;;;5170050;22;19914;-85
2023/12/30 03:42:10;;;;;;;;;;;5.20;79.20;;;;;;5171201;22;19907;-86
2023/12/30 03:44:34;;;;;;;;;;;5.10;79.30;;;;;;5172593;22;19934;-88
2023/12/30 03:46:55;;;;;;;;;;;5.10;79.20;;;;;;5194117;22;19903;-86
2023/12/30 03:49:22;;;;;;;;;;;5.20;79.20;;;;;;5173538;22;19907;-85
2023/12/30 03:51:51;;;;;;;;;;;5.10;79.20;;;;;;5178150;22;19988;-85
2023/12/30 03:54:16;;;;;;;;;;;5.10;79.10;;;;;;5197559;22;19903;-88
2023/12/30 03:56:47;;;;;;;;;;;5.20;79.10;;;;;;5174104;22;19914;-87
2023/12/30 04:01:57;;;;;;;;;;;5.10;79.20;;;;;;5197050;22;19904;-84
2023/12/30 04:04:32;;;;;;;;;;;5.10;79.20;;;;;;5172208;22;19978;-86
2023/12/30 04:07:06;;;;;;;;;;;5.20;79.20;;;;;;5173874;22;19912;-86
2023/12/30 04:09:29;;;;;;;;;;;5.20;79.20;;;;;;5175400;22;19951;-84
2023/12/30 04:11:52;;;;;;;;;;;5.20;79.20;;;;;;5198433;22;19945;-86
2023/12/30 04:14:13;;;;;;;;;;;5.20;79.20;;;;;;5196194;22;19923;-86
2023/12/30 04:16:33;;;;;;;;;;;5.10;79.40;;;;;;5197460;22;19907;-85
2023/12/30 04:19:02;;;;;;;;;;;5.10;79.40;;;;;;5172874;22;19918;-85
2023/12/30 04:21:03;;;;;;;;;;;5.10;79.40;;;;;;5199727;22;19908;-85
2023/12/30 04:23:11;;;;;;;;;;;5.20;79.50;;;;;;5196044;22;19911;-85
2023/12/30 04:25:12;;;;;;;;;;;5.30;79.60;;;;;;5168136;23;19903;-85
2023/12/30 04:27:16;;;;;;;;;;;5.30;79.70;;;;;;5170450;23;19999;-86
2023/12/30 04:29:22;;;;;;;;;;;5.20;79.60;;;;;;5170895;22;19903;-85
2023/12/30 04:31:43;;;;;;;;;;;5.30;79.60;;;;;;5174299;22;19959;-86
2023/12/30 04:34:07;;;;;;;;;;;5.30;79.60;;;;;;5196092;22;19918;-86
2023/12/30 04:36:35;;;;;;;;;;;5.20;79.50;;;;;;5173854;22;19915;-86
2023/12/30 04:38:56;;;;;;;;;;;5.20;79.50;;;;;;5171332;22;19915;-86
2023/12/30 04:41:16;;;;;;;;;;;5.30;79.70;;;;;;5198417;22;19911;-85
2023/12/30 04:43:43;;;;;;;;;;;5.30;79.60;;;;;;5192195;22;19908;-85
2023/12/30 04:46:13;;;;;;;;;;;5.20;79.60;;;;;;5172077;22;19935;-84
2023/12/30 04:48:33;;;;;;;;;;;5.30;79.80;;;;;;5173433;22;19926;-86
2023/12/30 04:50:57;;;;;;;;;;;5.30;79.70;;;;;;5197830;22;19943;-85
2023/12/30 04:53:21;;;;;;;;;;;5.30;79.60;;;;;;5194590;22;19919;-86
2023/12/30 04:55:34;;;;;;;;;;;5.30;79.70;;;;;;5167698;23;19950;-86
2023/12/30 04:57:41;;;;;;;;;;;5.30;79.70;;;;;;5139198;23;19932;-87
2023/12/30 04:59:59;;;;;;;;;;;5.30;79.60;;;;;;5168039;23;19908;-86
2023/12/30 05:02:17;;;;;;;;;;;5.30;79.60;;;;;;5166460;23;20503;-85
2023/12/30 05:04:22;;;;;;;;;;;5.30;79.60;;;;;;5165810;22;20668;-86
2023/12/30 05:06:26;;;;;;;;;;;5.30;79.60;;;;;;5159266;23;19960;-86
2023/12/30 05:08:37;;;;;;;;;;;5.30;79.60;;;;;;5164148;23;20099;-88
2023/12/30 05:10:57;;;;;;;;;;;5.30;79.50;;;;;;5169412;22;20010;-85
2023/12/30 05:13:21;;;;;;;;;;;5.30;79.40;;;;;;5159488;22;19907;-86
2023/12/30 05:15:42;;;;;;;;;;;5.20;79.50;;;;;;5192148;22;19986;-86
2023/12/30 05:18:04;;;;;;;;;;;5.30;79.60;;;;;;5170751;22;19908;-85
2023/12/30 05:20:29;;;;;;;;;;;5.20;79.40;;;;;;5193668;22;19907;-86
2023/12/30 05:23:03;;;;;;;;;;;5.30;79.60;;;;;;5193700;22;19956;-86
2023/12/30 05:25:24;;;;;;;;;;;5.20;79.50;;;;;;5168569;22;19931;-85
2023/12/30 05:27:44;;;;;;;;;;;5.30;79.50;;;;;;5192856;22;19907;-84
2023/12/30 05:30:07;;;;;;;;;;;5.30;79.50;;;;;;5191111;22;20220;-86
2023/12/30 05:32:33;;;;;;;;;;;5.20;79.50;;;;;;5166369;22;19904;-87
2023/12/30 05:34:33;;;;;;;;;;;5.20;79.50;;;;;;5192016;22;19907;-85
2023/12/30 05:36:40;;;;;;;;;;;5.20;79.50;;;;;;5163352;23;19918;-85
2023/12/30 05:38:59;;;;;;;;;;;5.10;79.40;;;;;;4110014;27;4159673;-85
2023/12/30 05:41:27;;;;;;;;;;;5.10;79.30;;;;;;4211533;28;19948;-87
2023/12/30 05:43:32;;;;;;;;;;;5.10;79.30;;;;;;4205101;28;19920;-86
2023/12/30 05:45:46;;;;;;;;;;;5.10;79.40;;;;;;4207882;28;19920;-85
2023/12/30 05:48:27;;;;;;;;;;;5.10;79.30;;;;;;4227475;27;19915;-87
2023/12/30 05:50:47;;;;;;;;;;;5.00;79.30;;;;;;4235878;27;19912;-85
2023/12/30 05:53:13;;;;;;;;;;;5.00;79.30;;;;;;4222943;28;19912;-86
2023/12/30 05:55:32;;;;;;;;;;;5.10;79.30;;;;;;4219602;28;19912;-85
2023/12/30 05:57:59;;;;;;;;;;;5.10;79.40;;;;;;4216555;28;19924;-84
2023/12/30 06:00:30;;;;;;;;;;;5.10;79.40;;;;;;4222414;27;20280;-86
2023/12/30 06:03:06;;;;;;;;;;;5.00;79.50;;;;;;4237025;27;19919;-85
2023/12/30 06:05:38;;;;;;;;;;;5.00;79.50;;;;;;4226763;27;19926;-84
2023/12/30 06:08:01;;;;;;;;;;;4.90;79.50;;;;;;4233504;27;19915;-86
2023/12/30 06:10:30;;;;;;;;;;;5.00;79.60;;;;;;4224612;27;19916;-85
2023/12/30 06:13:01;;;;;;;;;;;5.00;79.60;;;;;;4222708;27;19920;-85
2023/12/30 06:15:22;;;;;;;;;;;5.00;79.60;;;;;;4237781;27;19994;-85
2023/12/30 06:17:51;;;;;;;;;;;4.90;79.60;;;;;;4237903;27;19948;-85
2023/12/30 06:20:25;;;;;;;;;;;4.90;79.60;;;;;;4227467;28;19916;-85
2023/12/30 06:22:46;;;;;;;;;;;4.90;79.50;;;;;;4228458;28;19926;-87
2023/12/30 06:25:07;;;;;;;;;;;4.80;79.50;;;;;;4239181;27;19951;-83
2023/12/30 06:27:27;;;;;;;;;;;4.80;79.50;;;;;;4226768;28;19943;-85
2023/12/30 06:30:00;;;;;;;;;;;4.90;79.60;;;;;;4224250;27;19923;-87
2023/12/30 06:32:21;;;;;;;;;;;4.90;79.60;;;;;;4225193;28;19919;-86
2023/12/30 06:34:41;;;;;;;;;;;4.80;79.60;;;;;;4222506;27;19955;-85
2023/12/30 06:37:02;;;;;;;;;;;4.70;79.50;;;;;;4219723;28;19923;-84
2023/12/30 06:39:30;;;;;;;;;;;4.80;79.60;;;;;;4219255;27;19923;-85
2023/12/30 06:41:51;;;;;;;;;;;4.80;79.60;;;;;;4227560;28;19969;-85
2023/12/30 06:44:12;;;;;;;;;;;4.80;79.60;;;;;;4237457;27;19935;-86
2023/12/30 06:46:33;;;;;;;;;;;4.80;79.60;;;;;;4234983;27;19915;-84
2023/12/30 06:48:54;;;;;;;;;;;4.80;79.60;;;;;;4237467;27;19947;-88
2023/12/30 06:51:17;;;;;;;;;;;4.70;79.60;;;;;;4223531;27;19955;-85
2023/12/30 06:53:45;;;;;;;;;;;4.70;79.60;;;;;;4213813;27;19916;-86
2023/12/30 06:55:49;;;;;;;;;;;4.70;79.70;;;;;;4206993;28;19916;-86
2023/12/30 06:57:53;;;;;;;;;;;4.60;79.60;;;;;;4194269;28;19987;-86
2023/12/30 06:59:55;;;;;;;;;;;4.50;79.60;;;;;;4205106;28;19926;-85
2023/12/30 07:01:58;;;;;;;;;;;4.70;79.80;;;;;;4191158;28;19944;-86
2023/12/30 07:03:58;;;;;;;;;;;4.70;79.80;;;;;;4194577;28;19920;-86
2023/12/30 07:05:59;;;;;;;;;;;4.60;79.80;;;;;;4204996;28;19922;-86
2023/12/30 07:08:00;;;;;;;;;;;4.60;79.80;;;;;;4208718;28;20475;-85
2023/12/30 07:10:07;;;;;;;;;;;4.50;79.70;;;;;;4190187;28;20429;-85
2023/12/30 07:12:13;;;;;;;;;;;4.50;79.80;;;;;;4209799;28;19916;-87
2023/12/30 07:14:37;;;;;;;;;;;4.60;79.80;;;;;;4222812;28;19915;-86
2023/12/30 07:17:03;;;;;;;;;;;4.50;79.70;;;;;;4213222;27;21793;-85
2023/12/30 07:19:27;;;;;;;;;;;4.40;79.70;;;;;;4203963;27;19988;-86
2023/12/30 07:23:02;;;;;;;;;;;4.50;79.80;;;;;;4219153;27;19927;-85
2023/12/30 07:24:48;;;;;;;;;;;4.50;79.80;;;;;;4216387;27;19940;-85
2023/12/30 07:27:09;;;;;;;;;;;4.40;79.80;;;;;;4226956;28;20010;-85
2023/12/30 07:29:29;;;;;;;;;;;4.40;79.80;;;;;;4226453;28;20690;-85
2023/12/30 07:31:30;;;;;;;;;;;4.40;79.80;;;;;;4204962;28;19955;-87
2023/12/30 07:33:30;;;;;;;;;;;4.40;79.70;;;;;;4209129;28;19912;-85
2023/12/30 07:35:55;;;;;;;;;;;4.40;79.80;;;;;;4193695;28;19924;-85
2023/12/30 07:38:19;;;;;;;;;;;4.40;79.80;;;;;;4222340;27;19983;-85
2023/12/30 07:40:26;;;;;;;;;;;4.40;79.80;;;;;;4204150;28;19927;-85
2023/12/30 07:42:52;;;;;;;;;;;4.40;79.80;;;;;;4220212;27;19912;-86
2023/12/30 07:45:15;;;;;;;;;;;4.30;79.80;;;;;;4217615;27;19931;-86
2023/12/30 07:47:38;;;;;;;;;;;4.30;79.90;;;;;;4205632;28;20292;-85
2023/12/30 07:50:02;;;;;;;;;;;4.40;80.10;;;;;;4208079;28;19920;-84
2023/12/30 07:52:31;;;;;;;;;;;4.30;80.10;;;;;;4225629;28;19920;-84
2023/12/30 07:54:51;;;;;;;;;;;4.30;80.30;;;;;;4207989;28;20384;-86
2023/12/30 07:57:13;;;;;;;;;;;4.40;80.40;;;;;;4225534;28;19923;-85
2023/12/30 07:59:42;;;;;;;;;;;4.30;80.30;;;;;;4210449;27;20037;-85
2023/12/30 08:02:08;;;;;;;;;;;4.30;80.30;;;;;;4213457;28;19933;-84
2023/12/30 08:04:34;;;;;;;;;;;4.30;80.30;;;;;;4226537;28;19923;-85
2023/12/30 08:06:55;;;;;;;;;;;4.40;80.40;;;;;;4211249;28;20042;-85
2023/12/30 08:09:18;;;;;;;;;;;4.40;80.40;;;;;;4212287;28;20024;-85
2023/12/30 08:11:44;;;;;;;;;;;4.40;80.40;;;;;;4220057;28;20351;-85
2023/12/30 08:14:15;;;;;;;;;;;4.40;80.40;;;;;;4206882;28;20316;-86
2023/12/30 08:16:59;;;;;;;;;;;4.40;80.40;;;;;;4211803;28;19965;-85
2023/12/30 08:19:20;;;;;;;;;;;4.50;80.50;;;;;;4205294;28;19966;-86
2023/12/30 08:21:54;;;;;;;;;;;4.30;80.40;;;;;;4213890;28;19920;-84
2023/12/30 08:27:22;;;;;;;;;;;4.50;80.80;;;;;;4193696;28;20344;-84
2023/12/30 08:29:29;;;;;;;;;;;4.40;80.70;;;;;;4190816;28;19995;-85
2023/12/30 08:31:51;;;;;;;;;;;4.40;80.70;;;;;;4196502;28;19922;-85
2023/12/30 08:33:55;;;;;;;;;;;4.50;80.70;;;;;;4190353;28;19987;-85
2023/12/30 08:38:48;;;;;;;;;;;4.40;80.70;;;;;;4219116;28;19966;-85
2023/12/30 08:40:49;;;;;;;;;;;4.50;80.70;;;;;;4207744;28;19920;-85
2023/12/30 08:43:26;;;;;;;;;;;4.30;80.70;;;;;;4220927;27;20018;-85
2023/12/30 08:45:59;;;;;;;;;;;4.50;80.80;;;;;;4210318;28;19915;-84
2023/12/30 08:48:19;;;;;;;;;;;4.50;80.80;;;;;;4226514;28;19923;-84
2023/12/30 08:50:40;;;;;;;;;;;4.50;80.80;;;;;;4220674;28;19922;-84
2023/12/30 08:53:01;;;;;;;;;;;4.40;80.80;;;;;;4221339;27;20026;-87
2023/12/30 08:58:41;;;;;;;;;;;4.40;80.70;;;;;;4222150;27;19920;-86
2023/12/30 09:01:05;;;;;;;;;;;4.40;80.70;;;;;;4225320;28;19915;-86
2023/12/30 09:03:39;;;;;;;;;;;4.40;80.80;;;;;;4227509;27;20891;-85
2023/12/30 09:06:08;;;;;;;;;;;4.50;80.80;;;;;;4205653;28;19922;-85
2023/12/30 09:08:09;;;;;;;;;;;4.50;80.80;;;;;;4206143;28;20014;-85
2023/12/30 09:10:10;;;;;;;;;;;4.50;80.90;;;;;;4206165;28;20389;-86
2023/12/30 09:12:36;;;;;;;;;;;4.50;80.90;;;;;;4221765;27;19973;-88
2023/12/30 09:14:36;;;;;;;;;;;4.50;80.80;;;;;;4219848;27;19921;-85
2023/12/30 09:16:57;;;;;;;;;;;4.50;81.00;;;;;;4221613;27;19995;-86
2023/12/30 09:19:17;;;;;;;;;;;4.50;81.00;;;;;;4219852;27;19946;-85
2023/12/30 09:21:55;;;;;;;;;;;4.50;81.00;;;;;;4210606;27;19920;-87
2023/12/30 09:24:16;;;;;;;;;;;4.50;81.10;;;;;;4219055;27;19990;-87
2023/12/30 09:26:44;;;;;;;;;;;4.50;81.20;;;;;;4218356;27;19919;-85
2023/12/30 09:29:05;;;;;;;;;;;4.60;81.20;;;;;;4212664;27;20017;-85
2023/12/30 09:31:29;;;;;;;;;;;4.70;81.30;;;;;;4224439;28;20186;-84
2023/12/30 09:33:49;;;;;;;;;;;4.70;81.20;;;;;;4210636;27;19920;-85
2023/12/30 09:36:10;;;;;;;;;;;4.60;81.30;;;;;;4224324;28;19920;-86
2023/12/30 09:38:33;;;;;;;;;;;4.70;81.40;;;;;;4224325;28;19934;-86
2023/12/30 09:41:02;;;;;;;;;;;4.60;81.40;;;;;;4207752;28;19916;-87
2023/12/30 09:43:26;;;;;;;;;;;4.70;81.40;;;;;;4208897;28;19924;-85
2023/12/30 09:51:43;;;;;;;;;;;4.90;81.60;;;;;;4140787;28;19918;-85
2023/12/30 09:54:22;;;;;;;;;;;;;;;;;;;;;
2023/12/30 09:57:14;;;;;;;;;;;4.90;81.70;;;;;;4141861;28;19993;-86
2023/12/30 09:59:40;;;;;;;;;;;5.00;81.80;;;;;;4136340;28;20016;-85
2023/12/30 10:02:02;;;;;;;;;;;5.10;81.90;;;;;;4148372;28;19900;-86
2023/12/30 10:04:38;;;;;;;;;;;5.10;81.80;;;;;;4179151;28;19928;-85
2023/12/30 10:07:30;;;;;;;;;;;;;;;;;;;;;
2023/12/30 10:09:37;;;;;;;;;;;5.10;81.70;;;;;;4209601;28;19927;-85
2023/12/30 10:11:51;;;;;;;;;;;5.10;81.70;;;;;;4211898;28;19923;-84
2023/12/30 10:14:33;;;;;;;;;;;5.20;81.70;;;;;;4226368;28;19923;-86
2023/12/30 10:16:36;;;;;;;;;;;5.10;81.60;;;;;;4188206;28;19966;-85
2023/12/30 10:18:42;;;;;;;;;;;5.20;81.60;;;;;;4205741;28;19921;-87
2023/12/30 10:20:49;;;;;;;;;;;5.30;81.50;;;;;;4207541;28;19917;-86
2023/12/30 10:22:55;;;;;;;;;;;5.40;81.60;;;;;;4194823;28;19916;-85
2023/12/30 10:25:22;;;;;;;;;;;5.30;81.40;;;;;;4228305;27;19937;-85
2023/12/30 10:27:47;;;;;;;;;;;5.40;81.30;;;;;;4228452;28;19916;-86
2023/12/30 10:29:54;;;;;;;;;;;5.50;81.30;;;;;;4192534;28;19920;-85
2023/12/30 10:32:27;;;;;;;;;;;5.50;81.30;;;;;;4181142;28;19973;-86
2023/12/30 10:34:48;;;;;;;;;;;5.40;81.30;;;;;;4212556;27;21001;-85
2023/12/30 10:37:19;;;;;;;;;;;5.60;81.40;;;;;;4225877;27;19916;-86
2023/12/30 10:39:53;;;;;;;;;;;5.70;81.30;;;;;;4230383;27;20006;-85
2023/12/30 10:42:42;;;;;;;;;;;5.60;81.30;;;;;;4136930;28;19918;-87
2023/12/30 10:45:21;;;;;;;;;;;5.60;81.20;;;;;;4213661;28;19946;-86
2023/12/30 10:47:54;;;;;;;;;;;5.70;81.20;;;;;;4219790;28;19931;-86
2023/12/30 10:50:26;;;;;;;;;;;5.90;81.30;;;;;;4226231;27;19916;-88
2023/12/30 10:52:50;;;;;;;;;;;5.80;81.10;;;;;;4225654;27;19922;-86
2023/12/30 10:55:14;;;;;;;;;;;5.90;81.10;;;;;;4225917;27;19970;-85
2023/12/30 10:57:17;;;;;;;;;;;6.00;81.10;;;;;;4207117;28;19929;-87
2023/12/30 10:59:21;;;;;;;;;;;6.00;81.10;;;;;;4231191;27;19915;-86
2023/12/30 11:02:05;;;;;;;;;;;6.00;81.00;;;;;;4195286;28;19920;-86
2023/12/30 11:04:29;;;;;;;;;;;6.10;81.00;;;;;;4213275;28;19927;-86
2023/12/30 11:06:56;;;;;;;;;;;6.20;81.00;;;;;;4209450;28;19916;-86
2023/12/30 11:09:29;;;;;;;;;;;6.20;80.70;;;;;;4228517;27;19978;-86
2023/12/30 11:14:31;;;;;;;;;;;6.20;79.40;;;;;;4353134;22;19929;-88
2023/12/30 11:16:52;;;;;;;;;;;6.30;79.20;;;;;;4193348;28;20011;-85
2023/12/30 11:19:32;;;;;;;;;;;6.40;78.00;;;;;;4198067;28;19982;-88
2023/12/30 11:21:56;;;;;;;;;;;6.30;77.80;;;;;;4194613;28;20071;-87
2023/12/30 11:24:11;;;;;;;;;;;6.40;77.20;;;;;;4175145;28;19935;-85
2023/12/30 11:26:27;;;;;;;;;;;6.30;77.70;;;;;;4192814;28;20446;-85
2023/12/30 11:28:48;;;;;;;;;;;6.50;77.50;;;;;;4178124;28;20050;-85
2023/12/30 11:31:34;;;;;;;;;;;6.50;77.90;;;;;;4178388;28;19912;-85
2023/12/30 11:34:17;;;;;;;;;;;;;;;;;;;;;
2023/12/30 11:36:39;;;;;;;;;;;6.40;77.20;;;;;;4128115;28;19918;-86
2023/12/30 11:39:14;;;;;;;;;;;6.50;77.40;;;;;;4154799;28;19928;-86
2023/12/30 11:41:47;;;;;;;;;;;6.50;77.30;;;;;;4187750;28;19920;-86
2023/12/30 11:44:07;;;;;;;;;;;6.50;77.10;;;;;;4164876;28;19924;-87
2023/12/30 11:46:29;;;;;;;;;;;6.50;76.80;;;;;;4160958;28;19984;-88
2023/12/30 11:48:52;;;;;;;;;;;6.50;76.70;;;;;;4175812;28;19927;-87
2023/12/30 11:51:19;;;;;;;;;;;6.60;76.70;;;;;;4166232;28;19917;-86
2023/12/30 11:53:45;;;;;;;;;;;6.50;76.40;;;;;;4174710;28;19967;-85
2023/12/30 11:56:04;;;;;;;;;;;6.50;76.20;;;;;;4163304;28;19913;-87
2023/12/30 11:58:11;;;;;;;;;;;6.50;76.40;;;;;;4157100;28;19936;-88
2023/12/30 12:00:24;;;;;;;;;;;6.60;76.40;;;;;;4174087;28;19916;-86
2023/12/30 12:02:34;;;;;;;;;;;6.50;76.30;;;;;;4162267;28;19924;-86
2023/12/30 12:04:45;;;;;;;;;;;6.50;76.30;;;;;;4173695;28;19920;-85
2023/12/30 12:06:46;;;;;;;;;;;6.50;76.40;;;;;;4156940;28;19913;-85
2023/12/30 12:08:47;;;;;;;;;;;6.50;76.10;;;;;;4156388;28;21147;-86
2023/12/30 12:11:08;;;;;;;;;;;6.50;75.80;;;;;;4176601;28;19917;-87
2023/12/30 12:13:20;;;;;;;;;;;6.50;76.10;;;;;;4148608;28;19935;-85
2023/12/30 12:15:42;;;;;;;;;;;6.50;76.10;;;;;;4160575;28;19932;-85
2023/12/30 12:17:49;;;;;;;;;;;6.50;76.10;;;;;;4176241;28;20007;-86
2023/12/30 12:20:10;;;;;;;;;;;6.50;76.00;;;;;;4180474;28;19917;-85
2023/12/30 12:22:34;;;;;;;;;;;6.50;76.00;;;;;;4186909;28;19948;-87
2023/12/30 12:24:40;;;;;;;;;;;6.50;75.80;;;;;;4182419;28;20712;-84
2023/12/30 12:30:05;;;;;;;;;;;6.50;75.80;;;;;;4167182;28;19916;-86
2023/12/30 12:32:26;;;;;;;;;;;6.50;75.30;;;;;;4183179;28;20062;-84
2023/12/30 12:34:27;;;;;;;;;;;6.60;75.30;;;;;;4151831;28;20015;-84
2023/12/30 12:36:35;;;;;;;;;;;6.40;75.30;;;;;;4164121;28;19993;-87
2023/12/30 12:38:56;;;;;;;;;;;6.50;75.40;;;;;;4186924;28;19924;-84
2023/12/30 12:41:16;;;;;;;;;;;6.50;75.30;;;;;;4178612;28;19966;-84
2023/12/30 12:43:34;;;;;;;;;;;6.60;75.40;;;;;;4180845;28;19951;-85
2023/12/30 12:45:42;;;;;;;;;;;6.50;75.40;;;;;;4162060;28;19917;-84
2023/12/30 12:48:03;;;;;;;;;;;6.60;75.50;;;;;;4177071;28;19916;-86
2023/12/30 12:50:24;;;;;;;;;;;6.50;75.30;;;;;;4188903;28;19930;-84
2023/12/30 12:52:44;;;;;;;;;;;6.60;75.40;;;;;;4168135;28;19917;-84
2023/12/30 12:55:05;;;;;;;;;;;6.50;75.40;;;;;;4180776;28;19923;-83
2023/12/30 12:57:26;;;;;;;;;;;6.50;75.40;;;;;;4176233;28;20294;-84
2023/12/30 12:59:46;;;;;;;;;;;6.50;75.20;;;;;;4184420;28;19921;-86
2023/12/30 13:02:08;;;;;;;;;;;6.50;75.10;;;;;;4184809;28;19917;-86
2023/12/30 13:04:54;;;;;;;;;;;6.60;75.30;;;;;;4165680;28;19921;-86
2023/12/30 13:07:20;;;;;;;;;;;6.50;75.30;;;;;;4182586;28;19913;-85
2023/12/30 13:09:53;;;;;;;;;;;6.60;75.30;;;;;;4178549;28;19923;-87
2023/12/30 13:12:14;;;;;;;;;;;6.60;75.40;;;;;;4179393;28;19913;-85
2023/12/30 13:14:37;;;;;;;;;;;6.60;75.20;;;;;;4181877;28;19970;-84
2023/12/30 13:16:58;;;;;;;;;;;6.60;75.20;;;;;;4180419;28;19917;-85
2023/12/30 13:18:59;;;;;;;;;;;6.60;75.20;;;;;;4191171;28;20056;-85
2023/12/30 13:21:05;;;;;;;;;;;6.60;75.20;;;;;;4166381;28;19917;-85
2023/12/30 13:23:25;;;;;;;;;;;6.60;75.10;;;;;;4163869;28;20141;-86
2023/12/30 13:25:47;;;;;;;;;;;6.70;75.00;;;;;;4183955;28;19983;-86
2023/12/30 13:28:08;;;;;;;;;;;6.60;75.00;;;;;;4180143;28;19931;-85
2023/12/30 13:30:09;;;;;;;;;;;6.60;74.90;;;;;;4181866;28;19921;-86
2023/12/30 13:32:29;;;;;;;;;;;6.60;74.80;;;;;;4184239;28;19916;-84
2023/12/30 13:34:53;;;;;;;;;;;6.60;74.80;;;;;;4181217;28;19921;-85
2023/12/30 13:37:13;;;;;;;;;;;6.60;74.80;;;;;;4174115;28;19925;-85
2023/12/30 13:39:34;;;;;;;;;;;6.60;74.80;;;;;;4173524;28;19960;-83
2023/12/30 13:41:56;;;;;;;;;;;6.60;74.80;;;;;;4180975;28;19955;-85
2023/12/30 13:44:16;;;;;;;;;;;6.60;74.80;;;;;;4183578;28;19932;-85
2023/12/30 13:51:34;;;;;;;;;;;6.50;74.80;;;;;;4186906;28;19967;-86
2023/12/30 13:53:54;;;;;;;;;;;6.60;74.80;;;;;;4171429;28;19917;-86
2023/12/30 13:56:06;;;;;;;;;;;6.50;74.60;;;;;;4171351;28;19949;-86
2023/12/30 13:58:28;;;;;;;;;;;6.60;74.80;;;;;;4174905;28;19956;-84
2023/12/30 14:00:49;;;;;;;;;;;6.60;74.80;;;;;;4201283;28;19920;-86
2023/12/30 14:03:09;;;;;;;;;;;6.60;74.90;;;;;;4172864;28;19981;-85
2023/12/30 14:05:35;;;;;;;;;;;6.60;74.80;;;;;;4188620;28;19924;-86
2023/12/30 14:08:08;;;;;;;;;;;6.50;74.70;;;;;;4190407;28;19917;-86
2023/12/30 14:10:29;;;;;;;;;;;6.50;74.70;;;;;;4179852;28;19923;-84
2023/12/30 14:12:56;;;;;;;;;;;6.50;74.70;;;;;;4177560;28;21033;-85
2023/12/30 14:15:17;;;;;;;;;;;6.50;74.70;;;;;;4190783;28;19920;-85
2023/12/30 14:17:38;;;;;;;;;;;6.50;74.80;;;;;;4197311;28;19917;-87
2023/12/30 14:19:39;;;;;;;;;;;6.40;74.60;;;;;;4196854;28;19925;-85
2023/12/30 14:21:39;;;;;;;;;;;6.40;74.60;;;;;;4197512;28;19904;-88